createdAt,value
2018-08-24T00:01:55.551Z,88.60
2018-08-24T00:04:23.818Z,88.50
2018-08-24T00:06:52.212Z,88.60
2018-08-24T00:09:23.364Z,88.70
2018-08-24T00:11:51.482Z,88.30
2018-08-24T00:14:19.887Z,87.90
2018-08-24T00:16:48.405Z,87.40
2018-08-24T00:19:17.230Z,87.10
2018-08-24T00:21:46.244Z,87.10
2018-08-24T00:24:15.195Z,86.80
2018-08-24T00:26:43.626Z,87.50
2018-08-24T00:29:15.306Z,86.70
2018-08-24T00:31:43.716Z,87.40
2018-08-24T00:34:12.177Z,86.60
2018-08-24T00:36:40.474Z,86.30
2018-08-24T00:39:09.318Z,87.10
2018-08-24T00:41:37.573Z,86.20
2018-08-24T00:44:06.173Z,86.10
2018-08-24T00:46:34.700Z,86.10
2018-08-24T00:49:02.999Z,86.00
2018-08-24T00:51:31.487Z,85.90
2018-08-24T00:54:04.507Z,85.80
2018-08-24T00:56:32.910Z,85.10
2018-08-24T00:59:01.299Z,85.50
2018-08-24T01:01:29.606Z,85.50
2018-08-24T01:03:57.879Z,85.50
2018-08-24T01:06:26.508Z,85.20
2018-08-24T01:08:54.997Z,85.30
2018-08-24T01:11:28.574Z,85.20
2018-08-24T01:13:56.877Z,85.50
2018-08-24T01:16:32.826Z,85.50
2018-08-24T01:19:03.856Z,85.80
2018-08-24T01:21:32.221Z,86.10
2018-08-24T01:24:00.634Z,86.30
2018-08-24T01:26:29.252Z,86.40
2018-08-24T01:28:57.755Z,86.80
2018-08-24T01:31:26.159Z,87.00
2018-08-24T01:33:54.451Z,87.20
2018-08-24T01:36:22.743Z,87.60
2018-08-24T01:38:51.129Z,87.80
2018-08-24T01:41:19.431Z,88.00
2018-08-24T01:43:48.559Z,88.30
2018-08-24T01:46:17.066Z,88.80
2018-08-24T01:48:45.569Z,88.90
2018-08-24T01:51:13.838Z,89.30
2018-08-24T01:53:42.242Z,89.50
2018-08-24T01:56:11.832Z,89.60
2018-08-24T01:58:40.166Z,89.80
2018-08-24T02:01:08.386Z,90.00
2018-08-24T02:03:36.662Z,90.10
2018-08-24T02:06:07.454Z,90.20
2018-08-24T02:08:36.481Z,90.30
2018-08-24T02:11:11.449Z,90.30
2018-08-24T02:13:46.737Z,90.40
2018-08-24T02:16:15.067Z,90.50
2018-08-24T02:18:48.772Z,90.50
2018-08-24T02:21:22.801Z,90.60
2018-08-24T02:23:51.080Z,90.70
2018-08-24T02:26:19.489Z,90.80
2018-08-24T02:28:47.865Z,91.30
2018-08-24T02:31:16.356Z,90.90
2018-08-24T02:33:44.799Z,90.90
2018-08-24T02:36:13.053Z,91.20
2018-08-24T02:38:44.759Z,91.30
2018-08-24T02:41:13.226Z,91.40
2018-08-24T02:43:41.646Z,91.30
2018-08-24T02:46:10.234Z,91.40
2018-08-24T02:48:38.750Z,91.10
2018-08-24T02:51:07.468Z,91.50
2018-08-24T02:53:35.881Z,91.20
2018-08-24T02:56:04.468Z,91.30
2018-08-24T02:58:33.060Z,91.30
2018-08-24T03:01:01.680Z,91.20
2018-08-24T03:03:29.971Z,91.10
2018-08-24T03:05:58.372Z,91.00
2018-08-24T03:08:26.836Z,91.00
2018-08-24T03:10:55.056Z,91.10
2018-08-24T03:13:23.375Z,91.00
2018-08-24T03:15:51.871Z,91.20
2018-08-24T03:18:20.177Z,91.20
2018-08-24T03:20:52.213Z,91.30
2018-08-24T03:23:20.623Z,91.30
2018-08-24T03:25:49.743Z,91.30
2018-08-24T03:28:18.775Z,91.30
2018-08-24T03:30:47.161Z,91.40
2018-08-24T03:33:15.595Z,91.60
2018-08-24T03:35:44.046Z,91.70
2018-08-24T03:38:16.044Z,91.70
2018-08-24T03:40:44.447Z,91.70
2018-08-24T03:43:13.358Z,91.80
2018-08-24T03:45:41.775Z,92.00
2018-08-24T03:48:11.291Z,91.90
2018-08-24T03:50:39.696Z,92.00
2018-08-24T03:53:08.212Z,91.90
2018-08-24T03:55:38.588Z,91.90
2018-08-24T03:58:07.651Z,92.00
2018-08-24T04:00:36.024Z,92.00
2018-08-24T04:03:04.338Z,92.00
2018-08-24T04:05:33.062Z,92.10
2018-08-24T04:08:01.406Z,92.00
2018-08-24T04:10:29.861Z,92.30
2018-08-24T04:12:58.382Z,92.30
2018-08-24T04:15:26.753Z,92.40
2018-08-24T04:17:55.281Z,92.50
2018-08-24T04:20:23.670Z,92.70
2018-08-24T04:22:52.046Z,92.70
2018-08-24T04:25:20.458Z,92.80
2018-08-24T04:27:48.864Z,92.90
2018-08-24T04:30:17.230Z,93.00
2018-08-24T04:32:45.662Z,93.10
2018-08-24T04:35:17.336Z,93.10
2018-08-24T04:37:45.608Z,93.50
2018-08-24T04:40:14.139Z,93.10
2018-08-24T04:42:42.449Z,93.20
2018-08-24T04:45:14.934Z,93.10
2018-08-24T04:47:43.461Z,93.10
2018-08-24T04:50:12.720Z,93.00
2018-08-24T04:52:41.251Z,92.90
2018-08-24T04:55:09.651Z,92.50
2018-08-24T04:57:38.121Z,92.20
2018-08-24T05:00:08.037Z,92.00
2018-08-24T05:02:39.940Z,92.00
2018-08-24T05:05:08.770Z,91.40
2018-08-24T05:07:37.061Z,91.00
2018-08-24T05:10:08.944Z,90.70
2018-08-24T05:12:37.852Z,90.50
2018-08-24T05:15:06.542Z,90.40
2018-08-24T05:17:34.942Z,90.20
2018-08-24T05:20:03.462Z,90.30
2018-08-24T05:22:31.656Z,89.30
2018-08-24T05:25:00.057Z,90.20
2018-08-24T05:27:28.610Z,89.90
2018-08-24T05:29:58.982Z,89.70
2018-08-24T05:32:27.398Z,89.70
2018-08-24T05:34:55.800Z,89.20
2018-08-24T05:37:24.293Z,89.40
2018-08-24T05:39:52.621Z,89.30
2018-08-24T05:42:21.085Z,89.20
2018-08-24T05:44:49.419Z,89.20
2018-08-24T05:47:17.824Z,89.00
2018-08-24T05:49:46.616Z,89.00
2018-08-24T05:52:14.897Z,89.20
2018-08-24T05:54:43.397Z,89.30
2018-08-24T05:57:11.589Z,89.40
2018-08-24T05:59:40.523Z,89.20
2018-08-24T06:02:08.801Z,89.60
2018-08-24T06:04:37.301Z,90.00
2018-08-24T06:07:05.705Z,90.40
2018-08-24T06:09:37.907Z,90.20
2018-08-24T06:12:06.389Z,90.20
2018-08-24T06:14:34.717Z,90.40
2018-08-24T06:17:08.571Z,90.50
2018-08-24T06:19:37.054Z,90.60
2018-08-24T06:22:05.519Z,90.60
2018-08-24T06:24:36.190Z,90.50
2018-08-24T06:27:04.677Z,90.50
2018-08-24T06:29:32.976Z,90.40
2018-08-24T06:32:01.596Z,90.20
2018-08-24T06:34:30.286Z,89.50
2018-08-24T06:36:58.707Z,88.30
2018-08-24T06:39:27.113Z,86.90
2018-08-24T06:41:55.798Z,85.70
2018-08-24T06:44:24.193Z,84.50
2018-08-24T06:46:52.372Z,83.30
2018-08-24T06:49:20.566Z,83.30
2018-08-24T06:51:48.888Z,84.10
2018-08-24T06:54:17.483Z,82.10
2018-08-24T06:56:45.882Z,77.80
2018-08-24T06:59:14.156Z,75.80
2018-08-24T07:01:42.956Z,75.50
2018-08-24T07:04:11.478Z,75.80
2018-08-24T07:06:40.082Z,77.10
2018-08-24T07:09:09.028Z,76.80
2018-08-24T07:11:37.508Z,75.00
2018-08-24T07:14:05.997Z,71.10
2018-08-24T07:16:34.714Z,67.10
2018-08-24T07:19:03.138Z,62.90
2018-08-24T07:21:31.411Z,60.50
2018-08-24T07:23:59.914Z,58.70
2018-08-24T07:26:28.315Z,56.80
2018-08-24T07:28:56.594Z,55.30
2018-08-24T07:31:25.013Z,52.90
2018-08-24T07:33:53.415Z,49.60
2018-08-24T07:36:21.928Z,46.60
2018-08-24T07:38:50.621Z,44.00
2018-08-24T07:41:19.081Z,41.50
2018-08-24T07:43:47.631Z,39.60
2018-08-24T07:46:15.936Z,37.60
2018-08-24T07:48:44.322Z,35.40
2018-08-24T07:51:12.842Z,34.50
2018-08-24T07:53:41.216Z,33.10
2018-08-24T07:56:09.520Z,31.90
2018-08-24T07:58:38.027Z,31.00
2018-08-24T08:01:06.540Z,30.90
2018-08-24T08:03:35.028Z,31.30
2018-08-24T08:06:03.614Z,32.50
2018-08-24T08:08:32.108Z,33.70
2018-08-24T08:11:00.403Z,34.20
2018-08-24T08:13:28.838Z,35.80
2018-08-24T08:15:59.363Z,37.80
2018-08-24T08:18:27.930Z,39.60
2018-08-24T08:20:56.273Z,40.10
2018-08-24T08:23:24.677Z,41.10
2018-08-24T08:25:52.957Z,42.20
2018-08-24T08:28:21.215Z,43.40
2018-08-24T08:30:49.347Z,44.60
2018-08-24T08:33:17.669Z,45.00
2018-08-24T08:35:46.062Z,44.40
2018-08-24T08:38:14.442Z,43.50
2018-08-24T08:40:42.754Z,43.60
2018-08-24T08:43:11.359Z,44.30
2018-08-24T08:45:40.538Z,44.90
2018-08-24T08:48:09.088Z,45.40
2018-08-24T08:50:37.798Z,45.30
2018-08-24T08:53:06.448Z,45.40
2018-08-24T08:55:34.679Z,45.80
2018-08-24T08:58:03.400Z,46.10
2018-08-24T09:00:31.794Z,46.70
2018-08-24T09:03:00.196Z,46.50
2018-08-24T09:05:28.460Z,46.30
2018-08-24T09:07:56.921Z,46.90
2018-08-24T09:10:25.289Z,47.40
2018-08-24T09:12:53.836Z,47.90
2018-08-24T09:15:22.192Z,48.60
2018-08-24T09:17:55.889Z,48.30
2018-08-24T09:20:29.817Z,48.40
2018-08-24T09:23:03.527Z,48.90
2018-08-24T09:25:37.207Z,49.30
2018-08-24T09:28:11.509Z,49.50
2018-08-24T09:30:46.458Z,50.60
2018-08-24T09:33:14.857Z,50.40
2018-08-24T09:35:45.500Z,50.60
2018-08-24T09:38:13.905Z,50.70
2018-08-24T09:40:47.706Z,50.40
2018-08-24T09:43:21.375Z,50.70
2018-08-24T09:45:49.608Z,50.30
2018-08-24T09:48:23.302Z,50.50
2018-08-24T09:50:57.297Z,50.60
2018-08-24T09:53:31.092Z,50.70
2018-08-24T09:55:59.596Z,50.70
2018-08-24T09:58:28.547Z,50.50
2018-08-24T10:01:02.479Z,50.80
2018-08-24T10:03:36.308Z,50.90
2018-08-24T10:06:10.422Z,50.80
2018-08-24T10:08:43.965Z,51.00
2018-08-24T10:11:12.364Z,50.10
2018-08-24T10:13:40.897Z,49.60
2018-08-24T10:16:09.603Z,49.10
2018-08-24T10:18:37.794Z,49.60
2018-08-24T10:21:06.282Z,50.00
2018-08-24T10:23:34.858Z,50.50
2018-08-24T10:26:03.511Z,50.80
2018-08-24T10:28:32.084Z,50.40
2018-08-24T10:31:00.615Z,50.20
2018-08-24T10:33:29.007Z,50.10
2018-08-24T10:35:57.516Z,50.00
2018-08-24T10:38:28.156Z,50.50
2018-08-24T10:40:56.594Z,51.80
2018-08-24T10:43:25.176Z,52.90
2018-08-24T10:45:53.654Z,53.70
2018-08-24T10:48:21.871Z,54.40
2018-08-24T10:50:50.170Z,54.70
2018-08-24T10:53:18.667Z,54.70
2018-08-24T10:55:52.953Z,54.70
2018-08-24T10:58:21.310Z,54.30
2018-08-24T11:00:49.803Z,55.40
2018-08-24T11:03:18.403Z,54.80
2018-08-24T11:05:50.193Z,55.40
2018-08-24T11:08:18.366Z,55.70
2018-08-24T11:10:46.450Z,55.50
2018-08-24T11:13:14.748Z,55.00
2018-08-24T11:15:48.092Z,54.30
2018-08-24T11:18:16.676Z,54.20
2018-08-24T11:20:45.083Z,53.70
2018-08-24T11:23:13.574Z,53.50
2018-08-24T11:25:42.648Z,54.00
2018-08-24T11:28:11.202Z,53.60
2018-08-24T11:30:39.587Z,52.50
2018-08-24T11:33:08.106Z,52.70
2018-08-24T11:35:37.528Z,52.90
2018-08-24T11:38:05.928Z,52.80
2018-08-24T11:40:34.228Z,51.80
2018-08-24T11:43:02.485Z,51.60
2018-08-24T11:45:35.218Z,51.50
2018-08-24T11:48:03.696Z,51.30
2018-08-24T11:50:31.982Z,50.70
2018-08-24T11:53:00.533Z,50.90
2018-08-24T11:55:29.119Z,51.30
2018-08-24T11:57:57.827Z,52.40
2018-08-24T12:00:34.472Z,52.80
2018-08-24T12:03:03.523Z,52.30
2018-08-24T12:05:32.078Z,52.90
2018-08-24T12:08:00.777Z,52.10
2018-08-24T12:10:28.907Z,51.40
2018-08-24T12:12:57.730Z,51.00
2018-08-24T12:15:26.341Z,50.70
2018-08-24T12:18:00.041Z,50.40
2018-08-24T12:20:28.608Z,50.00
2018-08-24T12:22:57.057Z,49.50
2018-08-24T12:25:25.446Z,49.50
2018-08-24T12:27:53.933Z,49.80
2018-08-24T12:30:22.472Z,49.20
2018-08-24T12:32:50.930Z,48.40
2018-08-24T12:35:19.672Z,48.30
2018-08-24T12:37:52.175Z,48.90
2018-08-24T12:40:20.467Z,49.10
2018-08-24T12:42:48.857Z,49.60
2018-08-24T12:45:17.394Z,49.90
2018-08-24T12:47:45.744Z,49.80
2018-08-24T12:50:14.070Z,49.60
2018-08-24T12:52:42.740Z,50.00
2018-08-24T12:55:11.291Z,50.10
2018-08-24T12:57:40.381Z,51.00
2018-08-24T13:00:10.801Z,50.30
2018-08-24T13:02:39.324Z,50.20
2018-08-24T13:05:49.511Z,49.80
2018-08-24T13:08:18.061Z,50.00
2018-08-24T13:10:46.473Z,49.80
2018-08-24T13:13:14.836Z,49.90
2018-08-24T13:15:43.023Z,49.30
2018-08-24T13:18:11.440Z,49.40
2018-08-24T13:20:39.740Z,49.10
2018-08-24T13:23:08.437Z,49.20
2018-08-24T13:25:36.732Z,49.40
2018-08-24T13:28:05.152Z,50.00
2018-08-24T13:30:33.680Z,48.80
2018-08-24T13:33:01.952Z,49.10
2018-08-24T13:35:30.330Z,49.20
2018-08-24T13:37:58.759Z,49.10
2018-08-24T13:40:27.223Z,49.00
2018-08-24T13:42:56.164Z,49.10
2018-08-24T13:45:24.799Z,49.20
2018-08-24T13:47:53.018Z,49.40
2018-08-24T13:50:21.485Z,49.40
2018-08-24T13:52:49.638Z,49.70
2018-08-24T13:55:18.169Z,50.50
2018-08-24T13:57:46.570Z,51.70
2018-08-24T14:00:15.272Z,52.60
2018-08-24T14:02:43.762Z,53.40
2018-08-24T14:05:12.119Z,53.80
2018-08-24T14:07:40.358Z,54.20
2018-08-24T14:10:08.883Z,54.10
2018-08-24T14:12:37.382Z,54.20
2018-08-24T14:15:05.795Z,54.10
2018-08-24T14:17:33.956Z,54.30
2018-08-24T14:20:06.844Z,54.10
2018-08-24T14:22:35.371Z,53.60
2018-08-24T14:25:03.973Z,53.10
2018-08-24T14:27:32.490Z,53.80
2018-08-24T14:30:01.086Z,53.90
2018-08-24T14:32:29.558Z,53.60
2018-08-24T14:34:58.080Z,53.30
2018-08-24T14:37:26.505Z,53.00
2018-08-24T14:39:58.474Z,52.90
2018-08-24T14:42:26.863Z,53.60
2018-08-24T14:44:55.143Z,53.60
2018-08-24T14:47:23.635Z,53.70
2018-08-24T14:49:51.815Z,53.30
2018-08-24T14:52:20.740Z,53.30
2018-08-24T14:54:49.301Z,54.00
2018-08-24T14:57:17.833Z,53.80
2018-08-24T14:59:47.243Z,53.20
2018-08-24T15:02:15.788Z,53.10
2018-08-24T15:04:44.295Z,53.40
2018-08-24T15:07:12.692Z,53.70
2018-08-24T15:09:50.969Z,54.20
2018-08-24T15:12:19.422Z,54.50
2018-08-24T15:14:48.127Z,54.70
2018-08-24T15:17:16.510Z,54.30
2018-08-24T15:19:44.796Z,54.30
2018-08-24T15:22:13.216Z,54.70
2018-08-24T15:24:41.619Z,54.30
2018-08-24T15:27:10.026Z,54.00
2018-08-24T15:29:38.532Z,53.80
2018-08-24T15:32:07.003Z,53.90
2018-08-24T15:34:40.631Z,53.70
2018-08-24T15:37:09.024Z,53.60
2018-08-24T15:39:37.329Z,53.80
2018-08-24T15:42:06.154Z,53.70
2018-08-24T15:44:39.345Z,53.60
2018-08-24T15:47:07.864Z,54.40
2018-08-24T15:49:36.984Z,56.30
2018-08-24T15:52:05.598Z,57.20
2018-08-24T15:54:34.535Z,58.00
2018-08-24T15:57:02.716Z,58.00
2018-08-24T15:59:30.968Z,57.20
2018-08-24T16:01:59.364Z,56.70
2018-08-24T16:04:27.676Z,56.70
2018-08-24T16:06:56.060Z,55.90
2018-08-24T16:09:24.489Z,56.40
2018-08-24T16:11:52.953Z,57.00
2018-08-24T16:14:21.485Z,57.30
2018-08-24T16:16:49.989Z,57.20
2018-08-24T16:19:18.486Z,57.50
2018-08-24T16:21:53.991Z,57.70
2018-08-24T16:24:22.227Z,57.90
2018-08-24T16:26:50.433Z,58.00
2018-08-24T16:29:19.138Z,58.40
2018-08-24T16:31:49.781Z,58.80
2018-08-24T16:34:18.293Z,59.10
2018-08-24T16:36:46.742Z,59.40
2018-08-24T16:39:15.399Z,59.80
2018-08-24T16:41:43.898Z,60.00
2018-08-24T16:44:12.280Z,60.30
2018-08-24T16:46:40.708Z,60.70
2018-08-24T16:49:09.648Z,61.50
2018-08-24T16:51:37.908Z,61.00
2018-08-24T16:54:06.089Z,61.00
2018-08-24T16:56:35.516Z,61.10
2018-08-24T16:59:03.918Z,60.80
2018-08-24T17:01:32.304Z,60.50
2018-08-24T17:04:00.548Z,60.30
2018-08-24T17:06:29.019Z,59.80
2018-08-24T17:08:58.626Z,60.30
2018-08-24T17:11:27.075Z,60.70
2018-08-24T17:14:04.671Z,61.00
2018-08-24T17:16:34.433Z,61.80
2018-08-24T17:19:03.073Z,62.40
2018-08-24T17:21:33.653Z,62.40
2018-08-24T17:24:02.239Z,63.30
2018-08-24T17:26:30.527Z,62.70
2018-08-24T17:29:17.992Z,62.90
2018-08-24T17:31:46.471Z,62.70
2018-08-24T17:34:14.743Z,62.80
2018-08-24T17:36:43.162Z,63.00
2018-08-24T17:39:12.208Z,63.60
2018-08-24T17:41:40.480Z,63.40
2018-08-24T17:44:08.878Z,63.70
2018-08-24T17:46:37.579Z,63.60
2018-08-24T17:49:06.121Z,63.70
2018-08-24T17:51:34.589Z,64.00
2018-08-24T17:54:03.074Z,64.30
2018-08-24T17:56:31.689Z,64.60
2018-08-24T17:59:00.065Z,65.00
2018-08-24T18:01:28.701Z,64.90
2018-08-24T18:03:57.195Z,65.00
2018-08-24T18:06:25.633Z,65.10
2018-08-24T18:08:54.093Z,65.40
2018-08-24T18:11:22.391Z,65.60
2018-08-24T18:13:50.775Z,65.80
2018-08-24T18:16:19.180Z,66.00
2018-08-24T18:18:47.720Z,67.30
2018-08-24T18:21:16.180Z,66.70
2018-08-24T18:23:44.499Z,67.00
2018-08-24T18:26:12.898Z,67.20
2018-08-24T18:28:41.506Z,67.80
2018-08-24T18:31:09.909Z,68.20
2018-08-24T18:33:38.605Z,68.80
2018-08-24T18:36:09.277Z,69.30
2018-08-24T18:38:38.432Z,69.60
2018-08-24T18:41:07.893Z,70.00
2018-08-24T18:43:36.293Z,70.30
2018-08-24T18:46:04.813Z,70.50
2018-08-24T18:48:33.145Z,70.90
2018-08-24T18:51:01.594Z,71.20
2018-08-24T18:53:29.899Z,71.50
2018-08-24T18:55:58.497Z,72.00
2018-08-24T18:58:26.889Z,72.20
2018-08-24T19:00:55.485Z,72.50
2018-08-24T19:03:24.004Z,72.80
2018-08-24T19:05:52.287Z,74.20
2018-08-24T19:08:21.613Z,73.70
2018-08-24T19:10:55.216Z,73.80
2018-08-24T19:13:23.501Z,74.10
2018-08-24T19:15:51.724Z,74.20
2018-08-24T19:18:25.291Z,74.50
2018-08-24T19:20:59.063Z,74.90
2018-08-24T19:23:27.451Z,75.10
2018-08-24T19:25:55.846Z,75.30
2018-08-24T19:28:29.787Z,75.80
2018-08-24T19:30:58.078Z,76.10
2018-08-24T19:33:26.788Z,76.30
2018-08-24T19:35:55.225Z,76.60
2018-08-24T19:38:23.584Z,76.70
2018-08-24T19:40:57.408Z,76.80
2018-08-24T19:43:26.040Z,77.20
2018-08-24T19:45:54.395Z,77.40
2018-08-24T19:48:28.156Z,77.80
2018-08-24T19:50:56.513Z,78.70
2018-08-24T19:53:24.934Z,78.20
2018-08-24T19:55:53.433Z,78.60
2018-08-24T19:59:30.253Z,78.70
2018-08-24T20:01:58.458Z,78.90
2018-08-24T20:04:26.964Z,78.70
2018-08-24T20:07:00.801Z,78.80
2018-08-24T20:09:34.690Z,78.90
2018-08-24T20:12:03.152Z,79.70
2018-08-24T20:14:37.118Z,79.00
2018-08-24T20:17:10.983Z,78.90
2018-08-24T20:19:39.436Z,78.60
2018-08-24T20:22:09.081Z,78.50
2018-08-24T20:24:37.659Z,79.00
2018-08-24T20:27:05.834Z,79.00
2018-08-24T20:29:34.349Z,79.60
2018-08-24T20:32:02.986Z,80.00
2018-08-24T20:34:31.484Z,80.10
2018-08-24T20:36:59.879Z,80.20
2018-08-24T20:39:28.373Z,80.20
2018-08-24T20:41:56.901Z,79.70
2018-08-24T20:44:25.255Z,79.90
2018-08-24T20:46:53.779Z,79.80
2018-08-24T20:49:22.180Z,79.60
2018-08-24T20:51:50.455Z,80.20
2018-08-24T20:54:18.879Z,80.60
2018-08-24T20:56:47.299Z,81.00
2018-08-24T20:59:15.879Z,81.10
2018-08-24T21:01:44.179Z,81.20
2018-08-24T21:04:12.724Z,81.40
2018-08-24T21:06:41.066Z,81.50
2018-08-24T21:09:10.149Z,81.80
2018-08-24T21:11:38.578Z,82.10
2018-08-24T21:14:07.105Z,82.50
2018-08-24T21:16:35.490Z,82.50
2018-08-24T21:19:03.913Z,82.70
2018-08-24T21:21:32.208Z,82.70
2018-08-24T21:24:00.584Z,82.70
2018-08-24T21:26:28.753Z,82.90
2018-08-24T21:28:57.173Z,82.50
2018-08-24T21:31:25.598Z,83.60
2018-08-24T21:33:54.008Z,83.90
2018-08-24T21:36:22.268Z,84.20
2018-08-24T21:38:50.576Z,84.40
2018-08-24T21:41:18.879Z,84.80
2018-08-24T21:43:48.399Z,85.10
2018-08-24T21:46:16.839Z,85.10
2018-08-24T21:48:45.182Z,85.10
2018-08-24T21:51:13.483Z,85.20
2018-08-24T21:53:42.697Z,85.60
2018-08-24T21:56:11.861Z,85.10
2018-08-24T21:58:41.017Z,85.30
2018-08-24T22:01:10.783Z,85.50
2018-08-24T22:03:39.575Z,85.80
2018-08-24T22:06:08.718Z,86.20
2018-08-24T22:08:37.738Z,86.60
2018-08-24T22:11:07.320Z,86.20
2018-08-24T22:13:36.030Z,85.80
2018-08-24T22:16:04.529Z,86.20
2018-08-24T22:18:33.574Z,86.60
2018-08-24T22:21:02.298Z,86.00
2018-08-24T22:23:31.715Z,86.20
2018-08-24T22:26:00.821Z,86.50
2018-08-24T22:28:29.707Z,87.10
2018-08-24T22:30:58.628Z,88.20
2018-08-24T22:33:28.159Z,89.00
2018-08-24T22:35:56.927Z,89.60
2018-08-24T22:38:25.589Z,90.00
2018-08-24T22:40:54.867Z,90.00
2018-08-24T22:43:29.456Z,90.10
2018-08-24T22:45:59.081Z,90.20
2018-08-24T22:48:28.144Z,90.20
2018-08-24T22:51:02.912Z,90.20
2018-08-24T22:53:31.722Z,90.60
2018-08-24T22:56:00.414Z,90.20
2018-08-24T22:58:29.477Z,90.10
2018-08-24T23:01:00.514Z,90.50
2018-08-24T23:03:29.540Z,90.80
2018-08-24T23:05:58.399Z,91.10
2018-08-24T23:08:28.263Z,91.30
2018-08-24T23:10:57.881Z,91.60
2018-08-24T23:13:27.149Z,91.70
2018-08-24T23:15:56.085Z,91.80
2018-08-24T23:18:24.805Z,91.80
2018-08-24T23:20:57.041Z,91.90
2018-08-24T23:23:26.549Z,92.10
2018-08-24T23:25:56.048Z,92.20
2018-08-24T23:28:25.544Z,92.30
2018-08-24T23:31:02.496Z,92.40
2018-08-24T23:33:31.174Z,92.50
2018-08-24T23:35:59.852Z,92.60
2018-08-24T23:38:29.507Z,92.70
2018-08-24T23:40:58.704Z,92.80
2018-08-24T23:43:27.986Z,92.70
2018-08-24T23:45:56.846Z,92.80
2018-08-24T23:48:30.518Z,93.00
2018-08-24T23:51:00.241Z,93.10
2018-08-24T23:53:29.678Z,93.20
2018-08-24T23:58:54.451Z,93.40
